sensor_id;sensor_type;location;lat;lon;timestamp;P1;durP1;ratioP1;P2;durP2;ratioP2
3939;SDS011;1984;48.312;9.244;2022-12-07T00:01:03;9.53;;;4.63;;
3939;SDS011;1984;48.312;9.244;2022-12-07T00:03:30;5.63;;;4.13;;
3939;SDS011;1984;48.312;9.244;2022-12-07T00:05:59;6.27;;;4.20;;
3939;SDS011;1984;48.312;9.244;2022-12-07T00:08:25;5.00;;;3.70;;
3939;SDS011;1984;48.312;9.244;2022-12-07T00:10:51;7.87;;;4.67;;
3939;SDS011;1984;48.312;9.244;2022-12-07T00:13:16;7.07;;;3.97;;
3939;SDS011;1984;48.312;9.244;2022-12-07T00:15:42;5.57;;;3.30;;
3939;SDS011;1984;48.312;9.244;2022-12-07T00:18:07;6.27;;;4.30;;
3939;SDS011;1984;48.312;9.244;2022-12-07T00:20:33;6.53;;;4.27;;
3939;SDS011;1984;48.312;9.244;2022-12-07T00:22:59;5.87;;;4.43;;
3939;SDS011;1984;48.312;9.244;2022-12-07T00:25:24;7.33;;;4.20;;
3939;SDS011;1984;48.312;9.244;2022-12-07T00:27:51;4.80;;;4.00;;
3939;SDS011;1984;48.312;9.244;2022-12-07T00:30:17;3.90;;;3.50;;
3939;SDS011;1984;48.312;9.244;2022-12-07T00:32:43;8.43;;;5.13;;
3939;SDS011;1984;48.312;9.244;2022-12-07T00:35:08;5.20;;;4.30;;
3939;SDS011;1984;48.312;9.244;2022-12-07T00:37:34;7.57;;;4.00;;
3939;SDS011;1984;48.312;9.244;2022-12-07T00:40:00;7.07;;;5.23;;
3939;SDS011;1984;48.312;9.244;2022-12-07T00:42:25;7.17;;;4.37;;
3939;SDS011;1984;48.312;9.244;2022-12-07T00:44:51;7.67;;;4.90;;
3939;SDS011;1984;48.312;9.244;2022-12-07T00:47:16;9.63;;;4.50;;
3939;SDS011;1984;48.312;9.244;2022-12-07T00:49:42;7.77;;;4.33;;
3939;SDS011;1984;48.312;9.244;2022-12-07T00:52:07;7.73;;;4.27;;
3939;SDS011;1984;48.312;9.244;2022-12-07T00:54:33;6.37;;;4.53;;
3939;SDS011;1984;48.312;9.244;2022-12-07T00:56:58;6.70;;;4.37;;
3939;SDS011;1984;48.312;9.244;2022-12-07T00:59:24;6.50;;;4.20;;
3939;SDS011;1984;48.312;9.244;2022-12-07T01:01:49;6.87;;;4.23;;
3939;SDS011;1984;48.312;9.244;2022-12-07T01:04:15;6.30;;;4.90;;
3939;SDS011;1984;48.312;9.244;2022-12-07T01:06:40;5.70;;;4.53;;
3939;SDS011;1984;48.312;9.244;2022-12-07T01:09:06;7.23;;;4.90;;
3939;SDS011;1984;48.312;9.244;2022-12-07T01:11:32;9.77;;;4.87;;
3939;SDS011;1984;48.312;9.244;2022-12-07T01:13:58;6.87;;;4.77;;
3939;SDS011;1984;48.312;9.244;2022-12-07T01:16:28;7.50;;;4.90;;
3939;SDS011;1984;48.312;9.244;2022-12-07T01:18:56;8.00;;;5.07;;
3939;SDS011;1984;48.312;9.244;2022-12-07T01:21:23;6.47;;;4.70;;
3939;SDS011;1984;48.312;9.244;2022-12-07T01:23:51;9.03;;;5.03;;
3939;SDS011;1984;48.312;9.244;2022-12-07T01:26:18;9.17;;;5.03;;
3939;SDS011;1984;48.312;9.244;2022-12-07T01:28:46;10.27;;;5.37;;
3939;SDS011;1984;48.312;9.244;2022-12-07T01:31:19;12.47;;;6.03;;
3939;SDS011;1984;48.312;9.244;2022-12-07T01:33:47;11.43;;;5.57;;
3939;SDS011;1984;48.312;9.244;2022-12-07T01:36:19;8.03;;;4.80;;
3939;SDS011;1984;48.312;9.244;2022-12-07T01:38:45;8.63;;;5.77;;
3939;SDS011;1984;48.312;9.244;2022-12-07T01:41:12;8.50;;;5.10;;
3939;SDS011;1984;48.312;9.244;2022-12-07T01:44:07;8.43;;;5.30;;
3939;SDS011;1984;48.312;9.244;2022-12-07T01:46:49;8.53;;;5.20;;
3939;SDS011;1984;48.312;9.244;2022-12-07T01:51:50;10.27;;;5.97;;
3939;SDS011;1984;48.312;9.244;2022-12-07T01:54:20;8.77;;;5.37;;
3939;SDS011;1984;48.312;9.244;2022-12-07T01:56:49;9.77;;;5.53;;
3939;SDS011;1984;48.312;9.244;2022-12-07T01:59:18;8.93;;;5.60;;
3939;SDS011;1984;48.312;9.244;2022-12-07T02:01:47;12.67;;;6.10;;
3939;SDS011;1984;48.312;9.244;2022-12-07T02:04:12;11.30;;;6.23;;
3939;SDS011;1984;48.312;9.244;2022-12-07T02:06:39;10.30;;;5.73;;
3939;SDS011;1984;48.312;9.244;2022-12-07T02:09:06;11.73;;;5.87;;
3939;SDS011;1984;48.312;9.244;2022-12-07T02:11:32;8.23;;;5.90;;
3939;SDS011;1984;48.312;9.244;2022-12-07T02:13:58;11.83;;;6.80;;
3939;SDS011;1984;48.312;9.244;2022-12-07T02:16:25;8.97;;;5.77;;
3939;SDS011;1984;48.312;9.244;2022-12-07T02:19:31;11.17;;;6.50;;
3939;SDS011;1984;48.312;9.244;2022-12-07T02:28:21;9.90;;;5.87;;
3939;SDS011;1984;48.312;9.244;2022-12-07T02:31:04;10.40;;;5.17;;
3939;SDS011;1984;48.312;9.244;2022-12-07T02:33:40;7.03;;;5.40;;
3939;SDS011;1984;48.312;9.244;2022-12-07T02:36:24;6.90;;;4.57;;
3939;SDS011;1984;48.312;9.244;2022-12-07T02:39:08;6.60;;;4.70;;
3939;SDS011;1984;48.312;9.244;2022-12-07T02:41:52;5.20;;;3.80;;
3939;SDS011;1984;48.312;9.244;2022-12-07T02:44:22;4.43;;;3.80;;
3939;SDS011;1984;48.312;9.244;2022-12-07T02:46:57;6.30;;;4.00;;
3939;SDS011;1984;48.312;9.244;2022-12-07T02:49:30;4.30;;;3.53;;
3939;SDS011;1984;48.312;9.244;2022-12-07T02:51:56;3.73;;;2.80;;
3939;SDS011;1984;48.312;9.244;2022-12-07T02:54:21;5.93;;;4.13;;
3939;SDS011;1984;48.312;9.244;2022-12-07T03:02:46;5.40;;;3.23;;
3939;SDS011;1984;48.312;9.244;2022-12-07T03:05:32;4.93;;;3.80;;
3939;SDS011;1984;48.312;9.244;2022-12-07T03:08:19;3.40;;;3.10;;
3939;SDS011;1984;48.312;9.244;2022-12-07T03:11:09;4.70;;;3.60;;
3939;SDS011;1984;48.312;9.244;2022-12-07T03:16:15;2.93;;;2.40;;
3939;SDS011;1984;48.312;9.244;2022-12-07T03:18:55;3.10;;;2.80;;
3939;SDS011;1984;48.312;9.244;2022-12-07T03:21:27;3.37;;;2.93;;
3939;SDS011;1984;48.312;9.244;2022-12-07T03:24:03;2.90;;;2.70;;
3939;SDS011;1984;48.312;9.244;2022-12-07T03:26:34;3.53;;;2.80;;
3939;SDS011;1984;48.312;9.244;2022-12-07T03:29:07;2.80;;;2.60;;
3939;SDS011;1984;48.312;9.244;2022-12-07T03:31:46;3.53;;;3.20;;
3939;SDS011;1984;48.312;9.244;2022-12-07T03:36:44;2.60;;;2.40;;
3939;SDS011;1984;48.312;9.244;2022-12-07T03:42:11;1.90;;;1.80;;
3939;SDS011;1984;48.312;9.244;2022-12-07T03:44:37;2.97;;;2.70;;
3939;SDS011;1984;48.312;9.244;2022-12-07T03:49:50;5.20;;;2.90;;
3939;SDS011;1984;48.312;9.244;2022-12-07T03:52:26;3.70;;;3.13;;
3939;SDS011;1984;48.312;9.244;2022-12-07T03:57:34;3.00;;;2.80;;
3939;SDS011;1984;48.312;9.244;2022-12-07T04:00:01;3.17;;;2.90;;
3939;SDS011;1984;48.312;9.244;2022-12-07T04:02:29;3.87;;;3.00;;
3939;SDS011;1984;48.312;9.244;2022-12-07T04:04:55;3.40;;;3.10;;
3939;SDS011;1984;48.312;9.244;2022-12-07T04:07:21;4.10;;;3.70;;
3939;SDS011;1984;48.312;9.244;2022-12-07T04:09:46;3.60;;;3.40;;
3939;SDS011;1984;48.312;9.244;2022-12-07T04:12:12;4.57;;;3.03;;
3939;SDS011;1984;48.312;9.244;2022-12-07T04:14:38;4.20;;;3.80;;
3939;SDS011;1984;48.312;9.244;2022-12-07T04:17:03;4.00;;;3.13;;
3939;SDS011;1984;48.312;9.244;2022-12-07T04:19:30;4.40;;;3.37;;
3939;SDS011;1984;48.312;9.244;2022-12-07T04:21:57;3.70;;;3.40;;
3939;SDS011;1984;48.312;9.244;2022-12-07T04:24:24;5.47;;;4.23;;
3939;SDS011;1984;48.312;9.244;2022-12-07T04:26:50;4.83;;;3.87;;
3939;SDS011;1984;48.312;9.244;2022-12-07T04:29:16;5.60;;;4.00;;
3939;SDS011;1984;48.312;9.244;2022-12-07T04:31:43;3.80;;;3.50;;
3939;SDS011;1984;48.312;9.244;2022-12-07T04:34:09;4.90;;;4.00;;
3939;SDS011;1984;48.312;9.244;2022-12-07T04:36:35;2.90;;;2.70;;
3939;SDS011;1984;48.312;9.244;2022-12-07T04:39:02;10.00;;;5.77;;
3939;SDS011;1984;48.312;9.244;2022-12-07T04:41:28;7.70;;;5.30;;
3939;SDS011;1984;48.312;9.244;2022-12-07T04:43:54;5.90;;;4.47;;
3939;SDS011;1984;48.312;9.244;2022-12-07T04:46:21;6.53;;;4.63;;
3939;SDS011;1984;48.312;9.244;2022-12-07T04:48:47;9.63;;;5.93;;
3939;SDS011;1984;48.312;9.244;2022-12-07T04:51:13;7.57;;;5.50;;
3939;SDS011;1984;48.312;9.244;2022-12-07T04:53:43;7.07;;;5.33;;
3939;SDS011;1984;48.312;9.244;2022-12-07T04:56:08;6.10;;;4.83;;
3939;SDS011;1984;48.312;9.244;2022-12-07T04:58:34;8.40;;;5.50;;
3939;SDS011;1984;48.312;9.244;2022-12-07T05:00:59;5.80;;;4.77;;
3939;SDS011;1984;48.312;9.244;2022-12-07T05:03:25;6.70;;;5.27;;
3939;SDS011;1984;48.312;9.244;2022-12-07T05:05:50;9.10;;;5.83;;
3939;SDS011;1984;48.312;9.244;2022-12-07T05:08:16;5.60;;;4.77;;
3939;SDS011;1984;48.312;9.244;2022-12-07T05:10:41;8.33;;;5.90;;
3939;SDS011;1984;48.312;9.244;2022-12-07T05:13:07;4.30;;;3.63;;
3939;SDS011;1984;48.312;9.244;2022-12-07T05:15:32;4.87;;;3.77;;
3939;SDS011;1984;48.312;9.244;2022-12-07T05:17:58;3.40;;;2.97;;
3939;SDS011;1984;48.312;9.244;2022-12-07T05:20:24;4.30;;;3.80;;
3939;SDS011;1984;48.312;9.244;2022-12-07T05:22:49;5.30;;;3.60;;
3939;SDS011;1984;48.312;9.244;2022-12-07T05:25:15;3.63;;;3.27;;
3939;SDS011;1984;48.312;9.244;2022-12-07T05:27:41;8.10;;;3.90;;
3939;SDS011;1984;48.312;9.244;2022-12-07T05:30:06;4.80;;;4.30;;
3939;SDS011;1984;48.312;9.244;2022-12-07T05:32:32;4.20;;;3.20;;
3939;SDS011;1984;48.312;9.244;2022-12-07T05:34:58;4.10;;;3.37;;
3939;SDS011;1984;48.312;9.244;2022-12-07T05:37:23;5.00;;;4.03;;
3939;SDS011;1984;48.312;9.244;2022-12-07T05:39:49;5.33;;;3.60;;
3939;SDS011;1984;48.312;9.244;2022-12-07T05:42:14;4.53;;;4.03;;
3939;SDS011;1984;48.312;9.244;2022-12-07T05:44:42;3.73;;;3.10;;
3939;SDS011;1984;48.312;9.244;2022-12-07T05:47:09;4.50;;;3.37;;
3939;SDS011;1984;48.312;9.244;2022-12-07T05:49:35;4.50;;;3.40;;
3939;SDS011;1984;48.312;9.244;2022-12-07T05:52:01;4.37;;;3.80;;
3939;SDS011;1984;48.312;9.244;2022-12-07T05:54:27;4.90;;;4.40;;
3939;SDS011;1984;48.312;9.244;2022-12-07T05:56:53;5.40;;;3.40;;
3939;SDS011;1984;48.312;9.244;2022-12-07T05:59:19;4.60;;;3.90;;
3939;SDS011;1984;48.312;9.244;2022-12-07T06:01:47;4.30;;;3.53;;
3939;SDS011;1984;48.312;9.244;2022-12-07T06:04:16;4.83;;;3.80;;
3939;SDS011;1984;48.312;9.244;2022-12-07T06:06:42;4.30;;;3.90;;
3939;SDS011;1984;48.312;9.244;2022-12-07T06:09:07;4.47;;;3.73;;
3939;SDS011;1984;48.312;9.244;2022-12-07T06:11:33;5.17;;;3.67;;
3939;SDS011;1984;48.312;9.244;2022-12-07T06:14:17;4.03;;;3.03;;
3939;SDS011;1984;48.312;9.244;2022-12-07T06:16:43;6.13;;;4.73;;
3939;SDS011;1984;48.312;9.244;2022-12-07T06:19:08;4.60;;;3.63;;
3939;SDS011;1984;48.312;9.244;2022-12-07T06:21:34;5.33;;;4.23;;
3939;SDS011;1984;48.312;9.244;2022-12-07T06:24:00;5.90;;;4.30;;
3939;SDS011;1984;48.312;9.244;2022-12-07T06:26:25;5.60;;;4.20;;
3939;SDS011;1984;48.312;9.244;2022-12-07T06:28:51;6.83;;;4.13;;
3939;SDS011;1984;48.312;9.244;2022-12-07T06:31:16;4.33;;;3.93;;
3939;SDS011;1984;48.312;9.244;2022-12-07T06:33:42;4.53;;;3.77;;
3939;SDS011;1984;48.312;9.244;2022-12-07T06:36:08;6.53;;;4.00;;
3939;SDS011;1984;48.312;9.244;2022-12-07T06:38:33;6.70;;;3.70;;
3939;SDS011;1984;48.312;9.244;2022-12-07T06:40:59;5.90;;;3.93;;
3939;SDS011;1984;48.312;9.244;2022-12-07T06:43:25;5.07;;;4.00;;
3939;SDS011;1984;48.312;9.244;2022-12-07T06:45:50;5.63;;;4.07;;
3939;SDS011;1984;48.312;9.244;2022-12-07T06:48:16;10.87;;;4.80;;
3939;SDS011;1984;48.312;9.244;2022-12-07T06:50:44;5.30;;;4.37;;
3939;SDS011;1984;48.312;9.244;2022-12-07T06:53:10;5.27;;;3.80;;
3939;SDS011;1984;48.312;9.244;2022-12-07T06:55:35;3.90;;;3.50;;
3939;SDS011;1984;48.312;9.244;2022-12-07T06:58:01;4.77;;;3.07;;
3939;SDS011;1984;48.312;9.244;2022-12-07T07:00:27;3.93;;;3.10;;
3939;SDS011;1984;48.312;9.244;2022-12-07T07:02:53;4.30;;;3.27;;
3939;SDS011;1984;48.312;9.244;2022-12-07T07:05:19;4.30;;;2.87;;
3939;SDS011;1984;48.312;9.244;2022-12-07T07:07:47;10.43;;;2.87;;
3939;SDS011;1984;48.312;9.244;2022-12-07T07:10:13;5.37;;;3.20;;
3939;SDS011;1984;48.312;9.244;2022-12-07T07:12:39;3.77;;;3.47;;
3939;SDS011;1984;48.312;9.244;2022-12-07T07:15:04;3.60;;;3.13;;
3939;SDS011;1984;48.312;9.244;2022-12-07T07:17:30;7.27;;;3.30;;
3939;SDS011;1984;48.312;9.244;2022-12-07T07:19:56;4.23;;;3.60;;
3939;SDS011;1984;48.312;9.244;2022-12-07T07:22:21;3.90;;;3.37;;
3939;SDS011;1984;48.312;9.244;2022-12-07T07:24:47;5.97;;;4.60;;
3939;SDS011;1984;48.312;9.244;2022-12-07T07:27:12;13.57;;;5.57;;
3939;SDS011;1984;48.312;9.244;2022-12-07T07:29:38;8.43;;;6.67;;
3939;SDS011;1984;48.312;9.244;2022-12-07T07:32:03;6.53;;;5.70;;
3939;SDS011;1984;48.312;9.244;2022-12-07T07:34:29;10.70;;;6.23;;
3939;SDS011;1984;48.312;9.244;2022-12-07T07:36:54;7.53;;;5.90;;
3939;SDS011;1984;48.312;9.244;2022-12-07T07:39:20;11.07;;;6.33;;
3939;SDS011;1984;48.312;9.244;2022-12-07T07:41:46;12.23;;;7.20;;
3939;SDS011;1984;48.312;9.244;2022-12-07T07:44:12;21.93;;;10.07;;
3939;SDS011;1984;48.312;9.244;2022-12-07T07:46:37;18.67;;;10.43;;
3939;SDS011;1984;48.312;9.244;2022-12-07T07:49:03;34.43;;;14.53;;
3939;SDS011;1984;48.312;9.244;2022-12-07T07:51:28;27.43;;;12.30;;
3939;SDS011;1984;48.312;9.244;2022-12-07T07:53:54;16.60;;;9.60;;
3939;SDS011;1984;48.312;9.244;2022-12-07T07:56:19;18.37;;;9.33;;
3939;SDS011;1984;48.312;9.244;2022-12-07T07:58:45;17.20;;;8.90;;
3939;SDS011;1984;48.312;9.244;2022-12-07T08:01:11;33.30;;;14.93;;
3939;SDS011;1984;48.312;9.244;2022-12-07T08:03:38;31.23;;;17.77;;
3939;SDS011;1984;48.312;9.244;2022-12-07T08:06:04;15.37;;;10.20;;
3939;SDS011;1984;48.312;9.244;2022-12-07T08:08:30;14.73;;;9.03;;
3939;SDS011;1984;48.312;9.244;2022-12-07T08:10:56;11.10;;;7.63;;
3939;SDS011;1984;48.312;9.244;2022-12-07T08:13:25;10.60;;;7.47;;
3939;SDS011;1984;48.312;9.244;2022-12-07T08:15:51;11.10;;;6.40;;
3939;SDS011;1984;48.312;9.244;2022-12-07T08:18:16;11.53;;;6.67;;
3939;SDS011;1984;48.312;9.244;2022-12-07T08:20:42;10.33;;;6.60;;
3939;SDS011;1984;48.312;9.244;2022-12-07T08:23:08;7.20;;;5.60;;
3939;SDS011;1984;48.312;9.244;2022-12-07T08:25:35;19.70;;;11.60;;
3939;SDS011;1984;48.312;9.244;2022-12-07T08:28:01;15.80;;;10.17;;
3939;SDS011;1984;48.312;9.244;2022-12-07T08:30:27;16.50;;;10.10;;
3939;SDS011;1984;48.312;9.244;2022-12-07T08:32:54;8.53;;;6.07;;
3939;SDS011;1984;48.312;9.244;2022-12-07T08:35:20;8.40;;;5.70;;
3939;SDS011;1984;48.312;9.244;2022-12-07T08:37:46;10.33;;;5.80;;
3939;SDS011;1984;48.312;9.244;2022-12-07T08:40:12;5.00;;;4.50;;
3939;SDS011;1984;48.312;9.244;2022-12-07T08:42:41;6.50;;;4.03;;
3939;SDS011;1984;48.312;9.244;2022-12-07T08:45:08;2.13;;;2.00;;
3939;SDS011;1984;48.312;9.244;2022-12-07T08:47:40;1.97;;;1.87;;
3939;SDS011;1984;48.312;9.244;2022-12-07T08:50:10;4.57;;;4.03;;
3939;SDS011;1984;48.312;9.244;2022-12-07T08:52:37;6.63;;;4.60;;
3939;SDS011;1984;48.312;9.244;2022-12-07T08:55:04;4.73;;;3.83;;
3939;SDS011;1984;48.312;9.244;2022-12-07T08:57:31;7.23;;;3.37;;
3939;SDS011;1984;48.312;9.244;2022-12-07T08:59:59;2.67;;;2.13;;
3939;SDS011;1984;48.312;9.244;2022-12-07T09:02:24;2.33;;;2.13;;
3939;SDS011;1984;48.312;9.244;2022-12-07T09:04:50;2.03;;;1.93;;
3939;SDS011;1984;48.312;9.244;2022-12-07T09:07:16;1.87;;;1.77;;
3939;SDS011;1984;48.312;9.244;2022-12-07T09:09:41;2.30;;;1.53;;
3939;SDS011;1984;48.312;9.244;2022-12-07T09:12:07;1.40;;;1.40;;
3939;SDS011;1984;48.312;9.244;2022-12-07T09:14:33;1.37;;;1.33;;
3939;SDS011;1984;48.312;9.244;2022-12-07T09:17:08;1.20;;;1.20;;
3939;SDS011;1984;48.312;9.244;2022-12-07T09:19:36;2.33;;;2.00;;
3939;SDS011;1984;48.312;9.244;2022-12-07T09:22:01;2.17;;;1.97;;
3939;SDS011;1984;48.312;9.244;2022-12-07T09:24:27;1.90;;;1.70;;
3939;SDS011;1984;48.312;9.244;2022-12-07T09:26:53;2.70;;;1.80;;
3939;SDS011;1984;48.312;9.244;2022-12-07T09:29:19;2.47;;;2.27;;
3939;SDS011;1984;48.312;9.244;2022-12-07T09:31:44;2.27;;;2.07;;
3939;SDS011;1984;48.312;9.244;2022-12-07T09:34:10;2.17;;;2.00;;
3939;SDS011;1984;48.312;9.244;2022-12-07T09:36:36;2.13;;;2.03;;
3939;SDS011;1984;48.312;9.244;2022-12-07T09:39:01;4.80;;;2.70;;
3939;SDS011;1984;48.312;9.244;2022-12-07T09:41:29;2.37;;;2.20;;
3939;SDS011;1984;48.312;9.244;2022-12-07T09:43:58;3.50;;;2.90;;
3939;SDS011;1984;48.312;9.244;2022-12-07T09:46:48;3.47;;;2.43;;
3939;SDS011;1984;48.312;9.244;2022-12-07T09:49:16;2.60;;;2.40;;
3939;SDS011;1984;48.312;9.244;2022-12-07T09:51:45;2.40;;;2.20;;
3939;SDS011;1984;48.312;9.244;2022-12-07T09:54:16;2.63;;;2.43;;
3939;SDS011;1984;48.312;9.244;2022-12-07T09:56:42;6.00;;;2.63;;
3939;SDS011;1984;48.312;9.244;2022-12-07T09:59:12;3.73;;;2.43;;
3939;SDS011;1984;48.312;9.244;2022-12-07T10:01:42;2.50;;;1.97;;
3939;SDS011;1984;48.312;9.244;2022-12-07T10:04:16;2.40;;;2.07;;
3939;SDS011;1984;48.312;9.244;2022-12-07T10:06:46;4.00;;;2.30;;
3939;SDS011;1984;48.312;9.244;2022-12-07T10:09:13;3.00;;;2.40;;
3939;SDS011;1984;48.312;9.244;2022-12-07T10:14:30;2.10;;;1.90;;
3939;SDS011;1984;48.312;9.244;2022-12-07T10:16:58;1.90;;;1.80;;
3939;SDS011;1984;48.312;9.244;2022-12-07T10:19:25;2.47;;;2.27;;
3939;SDS011;1984;48.312;9.244;2022-12-07T10:22:00;2.43;;;2.20;;
3939;SDS011;1984;48.312;9.244;2022-12-07T10:24:38;1.87;;;1.77;;
3939;SDS011;1984;48.312;9.244;2022-12-07T10:27:11;3.13;;;2.27;;
3939;SDS011;1984;48.312;9.244;2022-12-07T10:29:42;2.50;;;2.30;;
3939;SDS011;1984;48.312;9.244;2022-12-07T10:34:39;2.63;;;2.13;;
3939;SDS011;1984;48.312;9.244;2022-12-07T10:42:24;1.80;;;1.60;;
3939;SDS011;1984;48.312;9.244;2022-12-07T10:45:09;2.37;;;2.17;;
3939;SDS011;1984;48.312;9.244;2022-12-07T10:47:44;2.43;;;2.00;;
3939;SDS011;1984;48.312;9.244;2022-12-07T10:50:29;1.90;;;1.80;;
3939;SDS011;1984;48.312;9.244;2022-12-07T10:53:23;1.83;;;1.73;;
3939;SDS011;1984;48.312;9.244;2022-12-07T10:59:14;2.00;;;1.90;;
3939;SDS011;1984;48.312;9.244;2022-12-07T11:02:24;2.10;;;2.00;;
3939;SDS011;1984;48.312;9.244;2022-12-07T11:05:21;2.20;;;2.00;;
3939;SDS011;1984;48.312;9.244;2022-12-07T11:18:21;3.23;;;1.67;;
3939;SDS011;1984;48.312;9.244;2022-12-07T11:28:59;1.50;;;1.40;;
3939;SDS011;1984;48.312;9.244;2022-12-07T11:31:29;1.27;;;1.17;;
3939;SDS011;1984;48.312;9.244;2022-12-07T11:34:06;1.00;;;1.00;;
3939;SDS011;1984;48.312;9.244;2022-12-07T11:36:44;1.67;;;1.57;;
3939;SDS011;1984;48.312;9.244;2022-12-07T11:41:44;1.37;;;1.27;;
3939;SDS011;1984;48.312;9.244;2022-12-07T11:46:53;0.90;;;0.90;;
3939;SDS011;1984;48.312;9.244;2022-12-07T11:52:06;1.60;;;1.10;;
3939;SDS011;1984;48.312;9.244;2022-12-07T11:54:42;3.27;;;1.10;;
3939;SDS011;1984;48.312;9.244;2022-12-07T11:57:13;1.53;;;1.43;;
3939;SDS011;1984;48.312;9.244;2022-12-07T12:00:04;1.13;;;1.10;;
3939;SDS011;1984;48.312;9.244;2022-12-07T12:02:39;1.10;;;1.10;;
3939;SDS011;1984;48.312;9.244;2022-12-07T12:05:22;1.63;;;1.53;;
3939;SDS011;1984;48.312;9.244;2022-12-07T12:07:52;1.40;;;1.30;;
3939;SDS011;1984;48.312;9.244;2022-12-07T12:13:34;1.83;;;1.30;;
3939;SDS011;1984;48.312;9.244;2022-12-07T12:21:46;1.80;;;1.70;;
3939;SDS011;1984;48.312;9.244;2022-12-07T12:24:19;1.40;;;1.40;;
3939;SDS011;1984;48.312;9.244;2022-12-07T12:26:53;1.67;;;1.57;;
3939;SDS011;1984;48.312;9.244;2022-12-07T12:29:28;1.10;;;1.00;;
3939;SDS011;1984;48.312;9.244;2022-12-07T12:34:33;2.20;;;2.00;;
3939;SDS011;1984;48.312;9.244;2022-12-07T12:42:45;9.00;;;4.63;;
3939;SDS011;1984;48.312;9.244;2022-12-07T12:45:28;1.87;;;1.73;;
3939;SDS011;1984;48.312;9.244;2022-12-07T12:48:01;1.70;;;1.60;;
3939;SDS011;1984;48.312;9.244;2022-12-07T12:50:35;1.90;;;1.80;;
3939;SDS011;1984;48.312;9.244;2022-12-07T12:58:43;1.97;;;1.87;;
3939;SDS011;1984;48.312;9.244;2022-12-07T13:04:00;1.63;;;1.53;;
3939;SDS011;1984;48.312;9.244;2022-12-07T13:08:54;2.30;;;2.10;;
3939;SDS011;1984;48.312;9.244;2022-12-07T13:11:56;2.37;;;1.93;;
3939;SDS011;1984;48.312;9.244;2022-12-07T13:17:02;2.20;;;2.00;;
3939;SDS011;1984;48.312;9.244;2022-12-07T13:25:03;1.93;;;1.70;;
3939;SDS011;1984;48.312;9.244;2022-12-07T13:27:34;2.70;;;2.43;;
3939;SDS011;1984;48.312;9.244;2022-12-07T13:30:12;1.80;;;1.70;;
3939;SDS011;1984;48.312;9.244;2022-12-07T13:32:40;1.90;;;1.77;;
3939;SDS011;1984;48.312;9.244;2022-12-07T13:37:55;1.33;;;1.27;;
3939;SDS011;1984;48.312;9.244;2022-12-07T13:40:21;1.40;;;1.33;;
3939;SDS011;1984;48.312;9.244;2022-12-07T13:42:48;2.27;;;1.60;;
3939;SDS011;1984;48.312;9.244;2022-12-07T13:48:18;1.80;;;1.57;;
3939;SDS011;1984;48.312;9.244;2022-12-07T13:51:02;2.30;;;1.87;;
3939;SDS011;1984;48.312;9.244;2022-12-07T13:53:29;3.97;;;2.60;;
3939;SDS011;1984;48.312;9.244;2022-12-07T13:55:58;3.20;;;2.00;;
3939;SDS011;1984;48.312;9.244;2022-12-07T13:58:29;2.70;;;1.47;;
3939;SDS011;1984;48.312;9.244;2022-12-07T14:00:57;2.73;;;1.53;;
3939;SDS011;1984;48.312;9.244;2022-12-07T14:03:28;2.53;;;1.40;;
3939;SDS011;1984;48.312;9.244;2022-12-07T14:06:03;1.77;;;1.67;;
3939;SDS011;1984;48.312;9.244;2022-12-07T14:08:30;2.20;;;1.80;;
3939;SDS011;1984;48.312;9.244;2022-12-07T14:10:56;3.73;;;2.30;;
3939;SDS011;1984;48.312;9.244;2022-12-07T14:13:39;6.83;;;3.03;;
3939;SDS011;1984;48.312;9.244;2022-12-07T14:16:30;2.90;;;2.60;;
3939;SDS011;1984;48.312;9.244;2022-12-07T14:18:59;12.63;;;2.30;;
3939;SDS011;1984;48.312;9.244;2022-12-07T14:21:30;4.23;;;2.50;;
3939;SDS011;1984;48.312;9.244;2022-12-07T14:24:11;5.90;;;3.30;;
3939;SDS011;1984;48.312;9.244;2022-12-07T14:26:42;3.40;;;2.70;;
3939;SDS011;1984;48.312;9.244;2022-12-07T14:31:51;2.87;;;1.50;;
3939;SDS011;1984;48.312;9.244;2022-12-07T14:34:19;1.97;;;1.87;;
3939;SDS011;1984;48.312;9.244;2022-12-07T14:36:45;1.97;;;1.87;;
3939;SDS011;1984;48.312;9.244;2022-12-07T14:39:11;2.60;;;1.30;;
3939;SDS011;1984;48.312;9.244;2022-12-07T14:41:36;7.90;;;4.47;;
3939;SDS011;1984;48.312;9.244;2022-12-07T14:44:18;14.90;;;4.63;;
3939;SDS011;1984;48.312;9.244;2022-12-07T14:46:46;19.73;;;9.57;;
3939;SDS011;1984;48.312;9.244;2022-12-07T14:49:12;2.40;;;2.20;;
3939;SDS011;1984;48.312;9.244;2022-12-07T14:51:38;2.10;;;1.90;;
3939;SDS011;1984;48.312;9.244;2022-12-07T14:54:05;3.00;;;2.70;;
3939;SDS011;1984;48.312;9.244;2022-12-07T14:56:37;4.37;;;2.87;;
3939;SDS011;1984;48.312;9.244;2022-12-07T14:59:02;9.20;;;4.57;;
3939;SDS011;1984;48.312;9.244;2022-12-07T15:01:28;11.27;;;4.20;;
3939;SDS011;1984;48.312;9.244;2022-12-07T15:03:53;8.60;;;4.70;;
3939;SDS011;1984;48.312;9.244;2022-12-07T15:06:19;7.40;;;3.77;;
3939;SDS011;1984;48.312;9.244;2022-12-07T15:08:44;3.70;;;2.70;;
3939;SDS011;1984;48.312;9.244;2022-12-07T15:11:13;2.37;;;2.17;;
3939;SDS011;1984;48.312;9.244;2022-12-07T15:13:39;2.10;;;2.00;;
3939;SDS011;1984;48.312;9.244;2022-12-07T15:16:23;2.00;;;1.90;;
3939;SDS011;1984;48.312;9.244;2022-12-07T15:18:49;2.60;;;2.10;;
3939;SDS011;1984;48.312;9.244;2022-12-07T15:21:15;2.50;;;2.30;;
3939;SDS011;1984;48.312;9.244;2022-12-07T15:23:41;2.27;;;2.07;;
3939;SDS011;1984;48.312;9.244;2022-12-07T15:26:07;1.83;;;1.73;;
3939;SDS011;1984;48.312;9.244;2022-12-07T15:28:34;2.30;;;1.83;;
3939;SDS011;1984;48.312;9.244;2022-12-07T15:31:00;4.30;;;3.20;;
3939;SDS011;1984;48.312;9.244;2022-12-07T15:33:25;4.17;;;3.67;;
3939;SDS011;1984;48.312;9.244;2022-12-07T15:35:51;2.67;;;2.30;;
3939;SDS011;1984;48.312;9.244;2022-12-07T15:38:16;3.97;;;3.57;;
3939;SDS011;1984;48.312;9.244;2022-12-07T15:40:42;5.83;;;4.63;;
3939;SDS011;1984;48.312;9.244;2022-12-07T15:43:11;46.33;;;22.13;;
3939;SDS011;1984;48.312;9.244;2022-12-07T15:45:56;10.93;;;5.50;;
3939;SDS011;1984;48.312;9.244;2022-12-07T15:48:22;26.80;;;12.00;;
3939;SDS011;1984;48.312;9.244;2022-12-07T15:50:48;9.37;;;5.57;;
3939;SDS011;1984;48.312;9.244;2022-12-07T15:53:13;3.90;;;2.50;;
3939;SDS011;1984;48.312;9.244;2022-12-07T15:55:39;2.57;;;2.37;;
3939;SDS011;1984;48.312;9.244;2022-12-07T15:58:05;6.03;;;3.97;;
3939;SDS011;1984;48.312;9.244;2022-12-07T16:00:31;5.50;;;3.60;;
3939;SDS011;1984;48.312;9.244;2022-12-07T16:02:57;5.33;;;3.03;;
3939;SDS011;1984;48.312;9.244;2022-12-07T16:05:22;3.30;;;2.97;;
3939;SDS011;1984;48.312;9.244;2022-12-07T16:07:48;4.50;;;3.17;;
3939;SDS011;1984;48.312;9.244;2022-12-07T16:10:13;3.27;;;2.97;;
3939;SDS011;1984;48.312;9.244;2022-12-07T16:12:39;3.13;;;2.63;;
3939;SDS011;1984;48.312;9.244;2022-12-07T16:15:05;3.13;;;2.77;;
3939;SDS011;1984;48.312;9.244;2022-12-07T16:17:31;4.30;;;2.97;;
3939;SDS011;1984;48.312;9.244;2022-12-07T16:19:56;5.20;;;2.57;;
3939;SDS011;1984;48.312;9.244;2022-12-07T16:22:22;3.50;;;2.53;;
3939;SDS011;1984;48.312;9.244;2022-12-07T16:24:48;18.00;;;9.30;;
3939;SDS011;1984;48.312;9.244;2022-12-07T16:27:14;17.23;;;9.13;;
3939;SDS011;1984;48.312;9.244;2022-12-07T16:29:39;8.17;;;5.77;;
3939;SDS011;1984;48.312;9.244;2022-12-07T16:32:05;9.17;;;5.63;;
3939;SDS011;1984;48.312;9.244;2022-12-07T16:34:30;4.10;;;3.50;;
3939;SDS011;1984;48.312;9.244;2022-12-07T16:36:56;3.40;;;3.10;;
3939;SDS011;1984;48.312;9.244;2022-12-07T16:39:21;4.80;;;3.90;;
3939;SDS011;1984;48.312;9.244;2022-12-07T16:41:47;7.70;;;4.87;;
3939;SDS011;1984;48.312;9.244;2022-12-07T16:44:12;7.10;;;4.17;;
3939;SDS011;1984;48.312;9.244;2022-12-07T16:46:39;7.23;;;4.43;;
3939;SDS011;1984;48.312;9.244;2022-12-07T16:49:04;3.97;;;3.30;;
3939;SDS011;1984;48.312;9.244;2022-12-07T16:51:30;8.53;;;5.60;;
3939;SDS011;1984;48.312;9.244;2022-12-07T16:53:56;5.50;;;3.60;;
3939;SDS011;1984;48.312;9.244;2022-12-07T16:56:22;5.00;;;4.50;;
3939;SDS011;1984;48.312;9.244;2022-12-07T16:58:48;6.47;;;4.10;;
3939;SDS011;1984;48.312;9.244;2022-12-07T17:01:18;4.90;;;4.00;;
3939;SDS011;1984;48.312;9.244;2022-12-07T17:03:47;30.83;;;12.70;;
3939;SDS011;1984;48.312;9.244;2022-12-07T17:06:13;17.73;;;7.63;;
3939;SDS011;1984;48.312;9.244;2022-12-07T17:08:41;6.40;;;4.10;;
3939;SDS011;1984;48.312;9.244;2022-12-07T17:11:14;20.07;;;7.70;;
3939;SDS011;1984;48.312;9.244;2022-12-07T17:13:43;7.60;;;4.30;;
3939;SDS011;1984;48.312;9.244;2022-12-07T17:16:27;9.13;;;4.30;;